Time;durP1;ratioP1;P1;durP2;ratioP2;P2;SDS_P1;SDS_P2;PMS_P1;PMS_P2;Temp;Humidity;BMP_temperature;BMP_pressure;BME280_temperature;BME280_humidity;BME280_pressure;Samples;Min_cycle;Max_cycle;Signal;HPM_P1;HPM_P2
2021/03/06 00:00:21;;;;;;;;;;;;;;;20.55;35.98;100794.94;5098990;28;1917;-58
2021/03/06 00:02:47;;;;;;;;;;;;;;;20.59;35.63;100795.97;5117157;28;834;-59
2021/03/06 00:05:12;;;;;;;;;;;;;;;20.41;36.02;100797.63;5116874;28;771;-58
2021/03/06 00:07:38;;;;;;;;;;;;;;;20.28;36.50;100796.44;5117187;28;791;-58
2021/03/06 00:10:07;;;;;;;;;;;;;;;20.08;36.83;100803.06;5117221;28;835;-59
2021/03/06 00:12:33;;;;;;;;;;;;;;;20.06;36.93;100786.78;5116178;28;1098;-59
2021/03/06 00:14:59;;;;;;;;;;;;;;;20.16;36.45;100803.22;5115858;28;911;-57
2021/03/06 00:17:24;;;;;;;;;;;;;;;20.01;36.67;100797.91;5117092;28;767;-59
2021/03/06 00:19:50;;;;;;;;;;;;;;;19.89;37.34;100798.31;5116743;28;1914;-58
2021/03/06 00:22:15;;;;;;;;;;;;;;;20.03;36.84;100798.44;5115768;28;1440;-57
2021/03/06 00:24:41;;;;;;;;;;;;;;;20.17;36.47;100804.03;5115410;28;917;-59
2021/03/06 00:27:06;;;;;;;;;;;;;;;20.18;36.54;100789.94;5116125;28;965;-59
2021/03/06 00:29:32;;;;;;;;;;;;;;;19.99;36.75;100794.63;5116941;28;819;-59
2021/03/06 00:31:57;;;;;;;;;;;;;;;19.87;37.14;100802.53;5116847;28;997;-57
2021/03/06 00:34:22;;;;;;;;;;;;;;;20.00;36.94;100797.06;5116712;28;827;-58
2021/03/06 00:36:48;;;;;;;;;;;;;;;19.93;37.00;100801.34;5116997;28;803;-58
2021/03/06 00:39:13;;;;;;;;;;;;;;;19.83;37.16;100808.59;5115483;28;1918;-59
2021/03/06 00:41:39;;;;;;;;;;;;;;;20.01;36.85;100795.16;5114831;28;970;-57
2021/03/06 00:44:04;;;;;;;;;;;;;;;20.13;36.24;100800.22;5117142;28;830;-58
2021/03/06 00:46:30;;;;;;;;;;;;;;;20.05;36.74;100798.97;5116436;28;771;-58
2021/03/06 00:48:55;;;;;;;;;;;;;;;19.85;37.28;100799.22;5116306;28;803;-58
2021/03/06 00:51:21;;;;;;;;;;;;;;;20.00;36.86;100799.03;5115308;28;1334;-58
2021/03/06 00:53:47;;;;;;;;;;;;;;;20.06;36.74;100783.22;5115435;28;1221;-58
2021/03/06 00:56:13;;;;;;;;;;;;;;;20.22;36.30;100787.41;5115151;28;1169;-58
2021/03/06 00:58:38;;;;;;;;;;;;;;;20.37;36.12;100793.81;5116467;28;1917;-58
2021/03/06 01:01:05;;;;;;;;;;;;;;;20.35;35.93;100799.66;5116332;28;806;-59
2021/03/06 01:03:30;;;;;;;;;;;;;;;20.36;36.19;100804.06;5116294;28;843;-59
2021/03/06 01:05:56;;;;;;;;;;;;;;;20.10;36.58;100796.13;5116500;28;886;-59
2021/03/06 01:08:21;;;;;;;;;;;;;;;19.93;36.85;100802.13;5116174;28;827;-59
2021/03/06 01:10:47;;;;;;;;;;;;;;;20.15;36.30;100798.81;5115768;28;965;-59
2021/03/06 01:13:12;;;;;;;;;;;;;;;20.20;36.24;100799.88;5116327;28;759;-59
2021/03/06 01:15:38;;;;;;;;;;;;;;;20.21;36.18;100796.00;5120531;28;882;-59
2021/03/06 01:18:03;;;;;;;;;;;;;;;20.33;36.06;100791.66;5120161;28;791;-59
2021/03/06 01:20:29;;;;;;;;;;;;;;;20.35;35.85;100788.59;5120593;28;1955;-58
2021/03/06 01:22:54;;;;;;;;;;;;;;;20.46;35.54;100792.03;5120443;28;775;-58
2021/03/06 01:25:19;;;;;;;;;;;;;;;20.41;35.86;100792.94;5120089;28;807;-59
2021/03/06 01:27:45;;;;;;;;;;;;;;;20.50;35.55;100788.38;5119840;28;1009;-58
2021/03/06 01:30:11;;;;;;;;;;;;;;;20.43;35.67;100785.16;5120328;28;752;-58
2021/03/06 01:32:36;;;;;;;;;;;;;;;20.60;35.48;100792.91;5119956;28;863;-58
2021/03/06 01:35:03;;;;;;;;;;;;;;;20.63;35.24;100794.25;5120305;28;826;-58
2021/03/06 01:37:29;;;;;;;;;;;;;;;20.60;35.36;100798.44;5120109;28;771;-58
2021/03/06 01:39:54;;;;;;;;;;;;;;;20.56;35.43;100789.09;5119873;28;1909;-58
2021/03/06 01:42:20;;;;;;;;;;;;;;;20.61;35.35;100802.84;5119448;28;957;-58
2021/03/06 01:44:46;;;;;;;;;;;;;;;20.61;35.24;100793.75;5120133;28;775;-57
2021/03/06 01:47:12;;;;;;;;;;;;;;;20.79;34.91;100801.22;5119632;28;727;-58
2021/03/06 01:49:37;;;;;;;;;;;;;;;20.73;35.24;100796.06;5119688;28;1011;-57
2021/03/06 01:52:03;;;;;;;;;;;;;;;20.80;34.82;100808.38;5120055;28;790;-58
2021/03/06 01:54:28;;;;;;;;;;;;;;;20.66;35.17;100808.31;5119711;28;771;-56
2021/03/06 01:56:53;;;;;;;;;;;;;;;20.80;34.88;100815.84;5119296;28;1024;-58
2021/03/06 01:59:19;;;;;;;;;;;;;;;20.82;34.73;100817.19;5119761;28;1971;-58
2021/03/06 02:01:44;;;;;;;;;;;;;;;20.76;34.98;100817.56;5119261;28;775;-57
2021/03/06 02:04:10;;;;;;;;;;;;;;;20.58;35.32;100828.31;5119624;28;917;-57
2021/03/06 02:06:36;;;;;;;;;;;;;;;20.41;35.69;100839.91;5119688;28;751;-58
2021/03/06 02:09:01;;;;;;;;;;;;;;;20.21;36.12;100849.25;5119264;28;731;-59
2021/03/06 02:11:45;;;;;;;;;;;;;;;20.25;36.08;100857.78;5118976;28;1036;-59
2021/03/06 02:14:25;;;;;;;;;;;;;;;20.06;36.21;100861.31;5119558;28;791;-58
2021/03/06 02:16:53;;;;;;;;;;;;;;;20.07;36.39;100881.47;5118911;28;795;-58
2021/03/06 02:19:30;;;;;;;;;;;;;;;20.09;36.33;100870.94;5118455;28;1909;-58
2021/03/06 02:22:02;;;;;;;;;;;;;;;20.43;35.55;100868.03;5119384;28;850;-59
2021/03/06 02:24:33;;;;;;;;;;;;;;;20.40;35.80;100870.53;5118427;28;799;-57
2021/03/06 02:27:05;;;;;;;;;;;;;;;20.46;35.54;100853.59;5118970;28;965;-59
2021/03/06 02:29:38;;;;;;;;;;;;;;;20.46;35.58;100855.56;5117551;28;818;-58
2021/03/06 02:32:09;;;;;;;;;;;;;;;20.71;35.38;100867.41;5118979;28;747;-58
2021/03/06 02:34:34;;;;;;;;;;;;;;;20.70;35.07;100863.78;5117642;28;789;-57
2021/03/06 02:37:01;;;;;;;;;;;;;;;20.69;35.05;100867.66;5119028;28;826;-59
2021/03/06 02:39:26;;;;;;;;;;;;;;;20.71;35.14;100882.03;5118695;28;1906;-60
2021/03/06 02:41:52;;;;;;;;;;;;;;;20.74;35.11;100881.41;5116937;28;1006;-60
2021/03/06 02:44:18;;;;;;;;;;;;;;;20.76;34.96;100872.81;5118815;28;858;-58
2021/03/06 02:46:43;;;;;;;;;;;;;;;20.71;35.18;100875.69;5117450;28;919;-59
2021/03/06 02:49:09;;;;;;;;;;;;;;;20.67;35.24;100880.94;5117564;28;1078;-59
2021/03/06 02:51:35;;;;;;;;;;;;;;;20.78;34.97;100887.19;5118627;28;842;-59
2021/03/06 02:54:01;;;;;;;;;;;;;;;20.68;35.08;100893.69;5118435;28;811;-58
2021/03/06 02:56:26;;;;;;;;;;;;;;;20.72;35.06;100905.78;5118127;28;989;-59
2021/03/06 02:58:54;;;;;;;;;;;;;;;20.73;35.24;100901.88;5117328;28;1913;-59
2021/03/06 03:01:30;;;;;;;;;;;;;;;20.74;35.24;100905.47;5118268;28;759;-59
2021/03/06 03:04:27;;;;;;;;;;;;;;;20.70;35.43;100915.47;5117296;28;819;-58
2021/03/06 03:06:55;;;;;;;;;;;;;;;20.77;35.14;100919.50;5084193;28;1410;-57
2021/03/06 03:09:30;;;;;;;;;;;;;;;20.63;35.53;100921.34;5116952;28;763;-57
2021/03/06 03:11:58;;;;;;;;;;;;;;;20.36;35.79;100928.31;5116644;28;965;-59
2021/03/06 03:14:28;;;;;;;;;;;;;;;20.05;36.60;100936.13;5118363;28;763;-59
2021/03/06 03:17:01;;;;;;;;;;;;;;;20.12;36.47;100940.22;5116636;28;744;-59
2021/03/06 03:19:30;;;;;;;;;;;;;;;20.08;36.37;100947.44;5118160;28;1971;-57
2021/03/06 03:21:57;;;;;;;;;;;;;;;20.18;36.17;100952.81;5117092;28;819;-59
2021/03/06 03:24:22;;;;;;;;;;;;;;;20.22;36.25;100952.25;5116528;28;842;-58
2021/03/06 03:26:48;;;;;;;;;;;;;;;20.21;36.13;100956.13;5117410;28;1008;-57
2021/03/06 03:29:14;;;;;;;;;;;;;;;20.09;36.42;100960.13;5116914;28;855;-58
2021/03/06 03:31:39;;;;;;;;;;;;;;;19.95;36.84;100970.19;5116192;28;768;-58
2021/03/06 03:34:06;;;;;;;;;;;;;;;20.13;36.47;100976.91;5116496;28;945;-59
2021/03/06 03:36:31;;;;;;;;;;;;;;;20.23;36.05;100987.03;5116991;28;763;-58
2021/03/06 03:38:56;;;;;;;;;;;;;;;20.32;36.05;100979.75;5116398;28;1976;-58
2021/03/06 03:41:22;;;;;;;;;;;;;;;20.33;36.05;100984.97;5117459;28;977;-58
2021/03/06 03:43:47;;;;;;;;;;;;;;;20.41;35.88;100996.47;5117792;28;862;-57
2021/03/06 03:46:13;;;;;;;;;;;;;;;20.28;36.02;101000.78;5115873;28;798;-59
2021/03/06 03:48:39;;;;;;;;;;;;;;;19.91;36.66;101002.25;5116165;28;780;-56
2021/03/06 03:51:04;;;;;;;;;;;;;;;19.93;36.59;101005.56;5116029;28;1022;-60
2021/03/06 03:53:30;;;;;;;;;;;;;;;19.82;36.91;101016.69;5117125;28;817;-56
2021/03/06 03:55:55;;;;;;;;;;;;;;;20.03;36.39;101027.53;5117293;28;950;-59
2021/03/06 03:58:21;;;;;;;;;;;;;;;20.08;36.27;101035.78;5115913;28;949;-60
2021/03/06 04:00:46;;;;;;;;;;;;;;;19.90;36.64;101033.75;5116867;28;1918;-60
2021/03/06 04:03:15;;;;;;;;;;;;;;;19.77;36.98;101036.03;5116276;28;736;-53
2021/03/06 04:05:40;;;;;;;;;;;;;;;20.07;36.30;101045.16;5116143;28;763;-57
2021/03/06 04:08:06;;;;;;;;;;;;;;;19.81;36.81;101039.88;5115223;28;788;-58
2021/03/06 04:10:31;;;;;;;;;;;;;;;19.85;36.84;101042.06;5117232;28;791;-58
2021/03/06 04:12:57;;;;;;;;;;;;;;;19.91;36.77;101047.25;5116610;28;954;-58
2021/03/06 04:15:23;;;;;;;;;;;;;;;20.06;36.49;101054.53;5116751;28;791;-50
2021/03/06 04:17:48;;;;;;;;;;;;;;;20.00;36.42;101056.53;5117162;28;803;-49
2021/03/06 04:20:15;;;;;;;;;;;;;;;19.85;36.81;101053.09;5116876;28;1984;-57
2021/03/06 04:22:40;;;;;;;;;;;;;;;19.95;36.78;101058.50;5116716;28;791;-58
2021/03/06 04:25:06;;;;;;;;;;;;;;;19.90;36.75;101045.59;5116972;28;834;-56
2021/03/06 04:27:32;;;;;;;;;;;;;;;19.71;37.12;101056.47;5116317;28;949;-57
2021/03/06 04:29:57;;;;;;;;;;;;;;;19.79;36.88;101068.84;5116561;28;835;-58
2021/03/06 04:32:23;;;;;;;;;;;;;;;19.83;36.74;101073.50;5116875;28;830;-57
2021/03/06 04:34:48;;;;;;;;;;;;;;;19.69;37.22;101083.53;5116757;28;759;-54
2021/03/06 04:37:13;;;;;;;;;;;;;;;19.78;36.84;101087.34;5116498;28;738;-59
2021/03/06 04:39:39;;;;;;;;;;;;;;;19.81;36.78;101091.47;5116726;28;1976;-60
2021/03/06 04:42:04;;;;;;;;;;;;;;;19.60;37.46;101099.03;5115140;28;962;-59
2021/03/06 04:44:30;;;;;;;;;;;;;;;19.64;37.26;101113.91;5116454;28;751;-59
2021/03/06 04:46:55;;;;;;;;;;;;;;;19.47;37.46;101112.38;5116657;28;854;-55
2021/03/06 04:49:21;;;;;;;;;;;;;;;19.46;37.66;101118.16;5116610;28;1153;-60
2021/03/06 04:51:46;;;;;;;;;;;;;;;19.45;37.53;101122.84;5116453;28;788;-59
2021/03/06 04:54:12;;;;;;;;;;;;;;;19.49;37.26;101125.88;5116472;28;806;-60
2021/03/06 04:56:37;;;;;;;;;;;;;;;19.59;37.17;101145.13;5116490;28;1021;-60
2021/03/06 04:59:03;;;;;;;;;;;;;;;19.70;36.92;101151.41;5115161;28;1980;-59
2021/03/06 05:01:28;;;;;;;;;;;;;;;19.56;37.50;101161.41;5115886;28;743;-57
2021/03/06 05:03:54;;;;;;;;;;;;;;;19.42;37.80;101167.56;5116741;28;838;-46
2021/03/06 05:06:19;;;;;;;;;;;;;;;19.34;37.79;101162.63;5116424;28;763;-60
2021/03/06 05:08:45;;;;;;;;;;;;;;;19.35;37.63;101171.72;5116201;28;850;-50
2021/03/06 05:11:10;;;;;;;;;;;;;;;19.44;37.39;101175.53;5116052;28;989;-52
2021/03/06 05:13:36;;;;;;;;;;;;;;;19.44;37.25;101176.34;5116246;28;767;-57
2021/03/06 05:16:02;;;;;;;;;;;;;;;19.41;37.49;101187.97;5116012;28;909;-57
2021/03/06 05:18:27;;;;;;;;;;;;;;;19.50;37.27;101199.22;5117133;28;764;-55
2021/03/06 05:20:53;;;;;;;;;;;;;;;19.65;36.82;101212.13;5116632;28;1913;-56
2021/03/06 05:23:18;;;;;;;;;;;;;;;19.54;37.29;101205.00;5116345;28;811;-57
2021/03/06 05:25:44;;;;;;;;;;;;;;;19.47;37.46;101213.59;5116005;28;981;-56
2021/03/06 05:28:09;;;;;;;;;;;;;;;19.40;37.44;101213.88;5116188;28;783;-57
2021/03/06 05:30:35;;;;;;;;;;;;;;;19.34;37.56;101220.53;5116059;28;787;-57
2021/03/06 05:33:00;;;;;;;;;;;;;;;19.33;37.71;101210.59;5116400;28;870;-56
2021/03/06 05:35:26;;;;;;;;;;;;;;;19.30;37.78;101214.75;5115466;28;905;-57
2021/03/06 05:37:51;;;;;;;;;;;;;;;19.13;37.93;101228.88;5115936;28;827;-50
2021/03/06 05:40:17;;;;;;;;;;;;;;;19.31;37.68;101232.13;5116095;28;1987;-54
2021/03/06 05:42:42;;;;;;;;;;;;;;;19.30;37.83;101230.47;5115608;28;993;-54
2021/03/06 05:45:08;;;;;;;;;;;;;;;19.52;37.41;101248.59;5114748;28;775;-54
2021/03/06 05:47:33;;;;;;;;;;;;;;;19.38;37.64;101265.75;5116194;28;743;-56
2021/03/06 05:49:59;;;;;;;;;;;;;;;19.22;38.00;101266.88;5115822;28;1217;-57
2021/03/06 05:52:25;;;;;;;;;;;;;;;19.41;37.63;101275.41;5116183;28;755;-55
2021/03/06 05:54:50;;;;;;;;;;;;;;;19.39;37.55;101272.91;5115143;28;759;-53
2021/03/06 05:57:16;;;;;;;;;;;;;;;19.37;37.55;101275.13;5115879;28;997;-52
2021/03/06 05:59:42;;;;;;;;;;;;;;;19.40;37.63;101291.09;5116534;28;2009;-50
2021/03/06 06:02:08;;;;;;;;;;;;;;;19.38;37.71;101290.56;5118617;28;839;-57
2021/03/06 06:04:33;;;;;;;;;;;;;;;19.19;38.04;101290.31;5120003;28;810;-58
2021/03/06 06:06:59;;;;;;;;;;;;;;;19.37;37.63;101293.59;5118390;28;801;-52
2021/03/06 06:09:24;;;;;;;;;;;;;;;19.24;37.97;101295.84;5118378;28;833;-57
2021/03/06 06:11:50;;;;;;;;;;;;;;;19.30;37.88;101311.25;5119059;28;1028;-56
2021/03/06 06:14:15;;;;;;;;;;;;;;;19.11;38.16;101312.94;5119337;28;731;-55
2021/03/06 06:16:40;;;;;;;;;;;;;;;19.14;38.17;101320.69;5119640;28;755;-54
2021/03/06 06:19:06;;;;;;;;;;;;;;;19.11;38.10;101316.53;5117779;28;1992;-52
2021/03/06 06:21:41;;;;;;;;;;;;;;;19.37;37.76;101326.69;5119161;28;767;-54
2021/03/06 06:24:16;;;;;;;;;;;;;;;19.43;37.56;101334.69;5119458;28;788;-54
2021/03/06 06:26:55;;;;;;;;;;;;;;;19.32;37.61;101327.53;5119289;28;1021;-51
2021/03/06 06:29:36;;;;;;;;;;;;;;;19.36;37.54;101349.84;5119020;28;772;-56
2021/03/06 06:32:02;;;;;;;;;;;;;;;19.17;37.82;101344.94;5119016;28;823;-55
2021/03/06 06:34:28;;;;;;;;;;;;;;;19.01;38.36;101346.84;5119306;28;885;-57
2021/03/06 06:36:53;;;;;;;;;;;;;;;19.11;38.16;101346.88;5118905;28;885;-59
2021/03/06 06:39:26;;;;;;;;;;;;;;;19.02;38.34;101347.69;5118640;28;1972;-56
2021/03/06 06:41:53;;;;;;;;;;;;;;;19.76;36.58;101361.91;5118551;28;969;-56
2021/03/06 06:44:19;;;;;;;;;;;;;;;20.37;35.41;101352.56;5118417;28;946;-56
2021/03/06 06:46:44;;;;;;;;;;;;;;;19.81;36.67;101357.22;5118733;28;771;-56
2021/03/06 06:49:10;;;;;;;;;;;;;;;19.78;36.64;101363.28;5118550;28;965;-58
2021/03/06 06:51:36;;;;;;;;;;;;;;;19.07;38.05;101359.53;5119072;28;1061;-59
2021/03/06 06:54:11;;;;;;;;;;;;;;;19.11;38.29;101381.84;5118188;28;811;-58
2021/03/06 06:56:36;;;;;;;;;;;;;;;20.10;36.10;101394.38;5116644;28;1044;-59
2021/03/06 06:59:06;;;;;;;;;;;;;;;19.89;36.27;101404.66;5116327;28;1909;-57
2021/03/06 07:01:36;;;;;;;;;;;;;;;19.76;36.57;101415.16;5118775;28;1211;-53
2021/03/06 07:04:04;;;;;;;;;;;;;;;19.41;37.26;101429.84;5118412;28;806;-53
2021/03/06 07:06:30;;;;;;;;;;;;;;;18.90;38.56;101441.66;5117952;28;811;-57
2021/03/06 07:09:12;;;;;;;;;;;;;;;19.83;36.61;101437.78;5118288;28;755;-57
2021/03/06 07:11:37;;;;;;;;;;;;;;;20.08;35.97;101432.50;5117879;28;973;-56
2021/03/06 07:14:03;;;;;;;;;;;;;;;19.85;36.64;101442.22;5117882;28;772;-58
2021/03/06 07:16:47;;;;;;;;;;;;;;;19.65;37.05;101447.44;5118323;28;771;-57
2021/03/06 07:19:12;;;;;;;;;;;;;;;19.08;38.12;101454.09;5118248;28;1976;-60
2021/03/06 07:21:50;;;;;;;;;;;;;;;19.61;37.10;101442.78;5117912;28;841;-57
2021/03/06 07:24:15;;;;;;;;;;;;;;;20.35;35.52;101441.19;5118324;28;707;-56
2021/03/06 07:26:41;;;;;;;;;;;;;;;19.95;36.11;101439.41;5117886;28;960;-59
2021/03/06 07:29:06;;;;;;;;;;;;;;;19.89;36.60;101435.03;5117657;28;771;-54
2021/03/06 07:31:32;;;;;;;;;;;;;;;19.38;37.48;101445.00;5116591;28;889;-55
2021/03/06 07:33:58;;;;;;;;;;;;;;;19.02;38.40;101444.16;5117063;28;791;-57
2021/03/06 07:36:23;;;;;;;;;;;;;;;19.97;36.27;101451.00;5116259;28;755;-56
2021/03/06 07:38:49;;;;;;;;;;;;;;;20.27;35.56;101438.19;5118035;28;826;-57
2021/03/06 07:41:14;;;;;;;;;;;;;;;19.98;36.25;101444.41;5117533;28;1918;-58
2021/03/06 07:43:40;;;;;;;;;;;;;;;19.77;36.87;101449.94;5116142;28;1417;-56
2021/03/06 07:46:05;;;;;;;;;;;;;;;19.17;37.92;101437.81;5117773;28;758;-56
2021/03/06 07:48:33;;;;;;;;;;;;;;;19.29;38.01;101449.41;5117490;28;831;-51
2021/03/06 07:50:58;;;;;;;;;;;;;;;20.25;36.03;101445.97;5115955;28;1019;-53
2021/03/06 07:53:25;;;;;;;;;;;;;;;20.79;34.94;101453.44;5116536;28;878;-56
2021/03/06 07:55:50;;;;;;;;;;;;;;;20.51;35.47;101463.25;5117210;28;1012;-56
2021/03/06 07:58:17;;;;;;;;;;;;;;;20.18;35.94;101460.06;5116373;28;819;-55
2021/03/06 08:00:49;;;;;;;;;;;;;;;19.91;36.39;101465.91;5117744;28;1913;-54
2021/03/06 08:03:26;;;;;;;;;;;;;;;19.34;37.86;101463.19;5117275;28;847;-55
2021/03/06 08:05:53;;;;;;;;;;;;;;;19.03;38.26;101457.66;5117051;28;886;-53
2021/03/06 08:08:33;;;;;;;;;;;;;;;19.30;37.68;101459.34;5116916;28;743;-57
2021/03/06 08:11:05;;;;;;;;;;;;;;;20.43;35.69;101461.06;5116867;28;1009;-56
2021/03/06 08:13:34;;;;;;;;;;;;;;;20.18;35.93;101482.16;5117002;28;766;-53
2021/03/06 08:16:00;;;;;;;;;;;;;;;20.03;36.36;101485.78;5117001;28;735;-51
2021/03/06 08:18:32;;;;;;;;;;;;;;;19.50;37.45;101494.34;5117515;28;762;-57
2021/03/06 08:21:17;;;;;;;;;;;;;;;19.05;38.45;101487.72;5117071;28;1913;-55
2021/03/06 08:23:42;;;;;;;;;;;;;;;19.17;38.34;101487.44;5116566;28;1831;-54
2021/03/06 08:26:17;;;;;;;;;;;;;;;20.17;36.29;101489.63;5115499;28;966;-54
2021/03/06 08:28:42;;;;;;;;;;;;;;;19.97;36.43;101487.72;5117368;28;779;-55
2021/03/06 08:31:43;;;;;;;;;;;;;;;20.08;36.19;101504.28;5117079;28;962;-56
2021/03/06 08:34:24;;;;;;;;;;;;;;;19.47;37.38;101512.31;5053797;28;1392;-57
2021/03/06 08:36:49;;;;;;;;;;;;;;;18.82;38.86;101514.63;5110303;28;959;-56
2021/03/06 08:39:15;;;;;;;;;;;;;;;19.93;36.64;101518.94;5115872;28;1917;-56
2021/03/06 08:41:40;;;;;;;;;;;;;;;20.14;36.00;101525.22;5116646;28;1024;-54
2021/03/06 08:44:06;;;;;;;;;;;;;;;20.03;36.20;101535.47;5116884;28;759;-58
2021/03/06 08:46:31;;;;;;;;;;;;;;;19.79;36.70;101543.47;5115894;28;776;-58
2021/03/06 08:48:57;;;;;;;;;;;;;;;19.19;38.12;101538.44;5115329;28;855;-56
2021/03/06 08:51:22;;;;;;;;;;;;;;;18.88;38.79;101552.16;5116472;27;1177;-56
2021/03/06 08:53:56;;;;;;;;;;;;;;;19.79;36.79;101552.59;5115614;28;839;-57
2021/03/06 08:56:22;;;;;;;;;;;;;;;20.17;35.89;101552.28;5116192;28;1013;-56
2021/03/06 08:58:50;;;;;;;;;;;;;;;19.85;36.68;101547.91;5116583;28;787;-53
2021/03/06 09:01:15;;;;;;;;;;;;;;;19.72;36.73;101543.75;5116869;28;1914;-56
2021/03/06 09:03:41;;;;;;;;;;;;;;;19.11;38.29;101548.09;5116535;28;760;-60
2021/03/06 09:06:06;;;;;;;;;;;;;;;19.01;38.64;101547.22;5116480;28;767;-59
2021/03/06 09:08:32;;;;;;;;;;;;;;;20.01;36.45;101548.72;5116615;28;790;-58
2021/03/06 09:10:58;;;;;;;;;;;;;;;20.17;35.94;101547.59;5115654;28;965;-53
2021/03/06 09:13:25;;;;;;;;;;;;;;;20.03;36.46;101552.03;5116465;28;775;-56
2021/03/06 09:16:03;;;;;;;;;;;;;;;19.59;37.32;101547.06;5116524;28;750;-54
2021/03/06 09:18:38;;;;;;;;;;;;;;;19.06;38.26;101545.31;5116064;28;751;-52
2021/03/06 09:21:04;;;;;;;;;;;;;;;19.62;37.23;101552.84;5116501;28;1973;-54
2021/03/06 09:23:30;;;;;;;;;;;;;;;20.39;35.75;101549.19;5116492;28;786;-57
2021/03/06 09:25:55;;;;;;;;;;;;;;;19.96;36.67;101551.47;5115968;28;961;-57
2021/03/06 09:28:21;;;;;;;;;;;;;;;19.97;36.49;101547.63;5116761;28;782;-57
2021/03/06 09:30:47;;;;;;;;;;;;;;;19.36;37.77;101548.41;5116329;28;794;-54
2021/03/06 09:33:25;;;;;;;;;;;;;;;18.95;38.60;101554.66;5115975;28;827;-57
2021/03/06 09:35:55;;;;;;;;;;;;;;;19.74;36.88;101552.59;5119311;28;822;-55
2021/03/06 09:38:20;;;;;;;;;;;;;;;20.27;35.85;101557.81;5120247;28;766;-53
2021/03/06 09:40:45;;;;;;;;;;;;;;;19.91;36.65;101559.75;5119386;28;1917;-49
2021/03/06 09:43:12;;;;;;;;;;;;;;;19.88;36.32;101563.09;5120195;28;783;-61
2021/03/06 09:45:37;;;;;;;;;;;;;;;19.34;37.80;101565.22;5120163;28;755;-58
2021/03/06 09:48:03;;;;;;;;;;;;;;;19.04;38.41;101566.84;5119986;28;799;-53
2021/03/06 09:50:29;;;;;;;;;;;;;;;20.12;36.41;101580.75;5120094;28;1165;-48
2021/03/06 09:52:54;;;;;;;;;;;;;;;20.02;36.10;101572.47;5118694;28;807;-58
2021/03/06 09:55:20;;;;;;;;;;;;;;;19.87;36.52;101576.06;5119660;28;811;-56
2021/03/06 09:57:45;;;;;;;;;;;;;;;19.76;37.01;101585.41;5117845;28;957;-55
2021/03/06 10:00:26;;;;;;;;;;;;;;;19.12;38.28;101593.84;5118945;28;1983;-56
2021/03/06 10:02:52;;;;;;;;;;;;;;;19.34;38.01;101598.31;5119047;28;871;-54
2021/03/06 10:05:21;;;;;;;;;;;;;;;20.23;36.00;101592.59;5119871;28;1017;-57
2021/03/06 10:07:47;;;;;;;;;;;;;;;20.00;36.43;101597.56;5117725;28;827;-57
2021/03/06 10:10:13;;;;;;;;;;;;;;;19.98;36.36;101591.50;5117920;28;796;-54
2021/03/06 10:12:42;;;;;;;;;;;;;;;19.43;37.41;101593.94;5117833;28;1014;-58
2021/03/06 10:15:08;;;;;;;;;;;;;;;19.01;38.37;101600.41;5119594;28;756;-58
2021/03/06 10:17:33;;;;;;;;;;;;;;;19.91;36.65;101609.44;5119161;28;870;-58
2021/03/06 10:19:58;;;;;;;;;;;;;;;20.34;35.82;101613.56;5118820;28;1976;-56
2021/03/06 10:22:24;;;;;;;;;;;;;;;19.92;36.46;101616.63;5118261;28;763;-59
2021/03/06 10:24:50;;;;;;;;;;;;;;;19.72;36.91;101601.69;5118879;28;770;-56
2021/03/06 10:27:16;;;;;;;;;;;;;;;19.30;37.82;101600.78;5118838;28;969;-57
2021/03/06 10:29:41;;;;;;;;;;;;;;;18.90;38.61;101595.97;5119216;28;775;-57
2021/03/06 10:32:07;;;;;;;;;;;;;;;20.06;36.27;101595.63;5118901;28;771;-56
2021/03/06 10:34:33;;;;;;;;;;;;;;;20.19;36.12;101597.03;5119071;28;489;-53
2021/03/06 10:37:15;;;;;;;;;;;;;;;19.90;36.61;101597.59;5119090;28;870;-55
2021/03/06 10:39:50;;;;;;;;;;;;;;;19.64;37.02;101586.53;5118610;28;1917;-57
2021/03/06 10:42:16;;;;;;;;;;;;;;;19.15;38.23;101596.09;5118232;28;891;-54
2021/03/06 10:44:41;;;;;;;;;;;;;;;19.82;36.83;101596.22;5117860;28;776;-55
2021/03/06 10:47:07;;;;;;;;;;;;;;;20.39;35.77;101598.09;5117956;28;850;-56
2021/03/06 10:49:38;;;;;;;;;;;;;;;19.95;36.50;101594.84;5118697;28;1032;-58
2021/03/06 10:52:05;;;;;;;;;;;;;;;19.94;36.59;101606.97;5119151;28;831;-51
2021/03/06 10:54:39;;;;;;;;;;;;;;;19.35;37.86;101600.00;5118310;28;692;-55
2021/03/06 10:57:05;;;;;;;;;;;;;;;18.78;39.05;101577.72;5116459;28;1365;-51
2021/03/06 10:59:34;;;;;;;;;;;;;;;19.66;37.12;101591.75;5118332;28;1910;-54
2021/03/06 11:01:59;;;;;;;;;;;;;;;20.30;35.64;101592.28;5118195;28;770;-59
2021/03/06 11:04:28;;;;;;;;;;;;;;;19.96;36.54;101590.13;5118463;28;811;-59
2021/03/06 11:06:54;;;;;;;;;;;;;;;19.81;36.84;101589.03;5116716;28;817;-58
2021/03/06 11:09:22;;;;;;;;;;;;;;;19.22;38.20;101594.97;5116937;28;819;-56
2021/03/06 11:11:48;;;;;;;;;;;;;;;19.24;38.18;101601.06;5128424;27;946;-59
2021/03/06 11:14:26;;;;;;;;;;;;;;;20.25;36.00;101603.38;5138970;27;782;-53
2021/03/06 11:16:51;;;;;;;;;;;;;;;19.98;36.48;101612.78;5137997;27;794;-51
2021/03/06 11:19:17;;;;;;;;;;;;;;;19.99;36.40;101617.19;5139121;27;1917;-50
2021/03/06 11:21:42;;;;;;;;;;;;;;;19.63;37.26;101614.38;5138865;27;751;-58
2021/03/06 11:24:08;;;;;;;;;;;;;;;18.95;38.62;101610.59;5138352;27;783;-56
2021/03/06 11:26:34;;;;;;;;;;;;;;;19.49;37.63;101614.91;5138219;27;972;-55
2021/03/06 11:29:00;;;;;;;;;;;;;;;20.30;35.97;101617.16;5137581;27;783;-53
2021/03/06 11:31:26;;;;;;;;;;;;;;;19.97;36.44;101628.50;5138195;27;778;-53
2021/03/06 11:33:51;;;;;;;;;;;;;;;19.99;36.38;101625.47;5138896;27;744;-52
2021/03/06 11:36:17;;;;;;;;;;;;;;;19.43;37.41;101632.56;5135573;27;838;-57
2021/03/06 11:38:42;;;;;;;;;;;;;;;18.96;38.75;101630.75;5117243;28;881;-55
2021/03/06 11:41:07;;;;;;;;;;;;;;;19.69;37.13;101629.03;5122500;27;1976;-57
2021/03/06 11:43:33;;;;;;;;;;;;;;;20.37;35.83;101631.53;5138454;27;866;-55
2021/03/06 11:45:59;;;;;;;;;;;;;;;19.99;36.56;101630.97;5138370;27;827;-56
2021/03/06 11:48:24;;;;;;;;;;;;;;;19.87;36.47;101625.75;5138037;27;778;-52
2021/03/06 11:50:50;;;;;;;;;;;;;;;19.34;37.57;101634.19;5137525;27;1038;-59
2021/03/06 11:53:15;;;;;;;;;;;;;;;18.92;38.83;101633.19;5137686;27;763;-54
2021/03/06 11:55:41;;;;;;;;;;;;;;;20.03;36.56;101637.59;5137350;27;980;-56
2021/03/06 11:58:06;;;;;;;;;;;;;;;20.25;35.72;101642.84;5137071;27;819;-58
2021/03/06 12:00:32;;;;;;;;;;;;;;;19.91;36.48;101648.09;5136738;27;1966;-58
2021/03/06 12:02:58;;;;;;;;;;;;;;;19.66;36.99;101649.69;5137602;27;850;-54
2021/03/06 12:05:23;;;;;;;;;;;;;;;19.14;38.08;101655.06;5137789;27;758;-53
2021/03/06 12:07:50;;;;;;;;;;;;;;;19.03;38.39;101661.63;5137897;27;861;-56
2021/03/06 12:10:16;;;;;;;;;;;;;;;20.08;36.16;101658.88;5137753;27;798;-50
2021/03/06 12:12:43;;;;;;;;;;;;;;;20.20;35.92;101667.69;5137309;27;969;-54
2021/03/06 12:15:09;;;;;;;;;;;;;;;19.98;36.49;101670.75;5137752;27;751;-53
2021/03/06 12:17:34;;;;;;;;;;;;;;;19.76;36.85;101673.72;5137259;27;859;-54
2021/03/06 12:20:00;;;;;;;;;;;;;;;19.17;38.16;101683.19;5137503;27;1905;-52
2021/03/06 12:22:26;;;;;;;;;;;;;;;19.31;38.00;101689.88;5136515;27;799;-52
2021/03/06 12:24:51;;;;;;;;;;;;;;;20.27;35.97;101695.03;5137156;27;870;-55
2021/03/06 12:27:17;;;;;;;;;;;;;;;20.02;36.35;101685.66;5137183;27;1149;-58
2021/03/06 12:29:42;;;;;;;;;;;;;;;20.06;36.32;101697.78;5137592;27;866;-58
2021/03/06 12:32:08;;;;;;;;;;;;;;;19.42;37.60;101687.97;5136786;27;819;-58
2021/03/06 12:34:34;;;;;;;;;;;;;;;18.89;38.87;101699.88;5137497;27;860;-58
2021/03/06 12:36:59;;;;;;;;;;;;;;;19.94;36.52;101698.06;5136237;27;826;-58
2021/03/06 12:39:24;;;;;;;;;;;;;;;20.24;35.74;101698.38;5137139;27;1977;-58
2021/03/06 12:41:50;;;;;;;;;;;;;;;19.99;36.36;101700.00;5137092;27;976;-57
2021/03/06 12:44:16;;;;;;;;;;;;;;;19.67;37.08;101710.13;5137177;27;854;-59
2021/03/06 12:46:41;;;;;;;;;;;;;;;19.12;38.30;101714.31;5137128;27;765;-54
2021/03/06 12:49:07;;;;;;;;;;;;;;;19.34;37.93;101721.59;5137305;27;759;-58
2021/03/06 12:51:32;;;;;;;;;;;;;;;20.16;36.12;101722.66;5137059;27;1204;-58
2021/03/06 12:53:58;;;;;;;;;;;;;;;20.11;36.18;101722.66;5136870;27;794;-57